This is the latest recevied weather packets stored in our database for station/object SP6KBU-12. If no packets are shown the sender has not sent any weather packets the latest 10 day(s).
| Time | Temp. | Humidity | Pressure | Rain* | Wind** | Luminosity | Snow |
|---|---|---|---|---|---|---|---|
| 1777708844 | 22.78° C | 28% | 1026.8 hPa | - | - | - | - |
| 1777707944 | 22.22° C | 30% | 1026.8 hPa | - | - | - | - |
| 1777707044 | 21.67° C | 28% | 1026.8 hPa | - | - | - | - |
| 1777706144 | 21.11° C | 31% | 1026.8 hPa | - | - | - | - |
| 1777705244 | 20° C | 35% | 1026.8 hPa | - | - | - | - |
| 1777704343 | 18.89° C | 38% | 1026.8 hPa | - | - | - | - |
| 1777703443 | 17.78° C | 40% | 1026.8 hPa | - | - | - | - |
| 1777702542 | 16.67° C | 41% | 1026.8 hPa | - | - | - | - |
| 1777701642 | 15.56° C | 43% | 1026.7 hPa | - | - | - | - |
| 1777700741 | 14.44° C | 43% | 1026.6 hPa | - | - | - | - |
| 1777699841 | 13.33° C | 44% | 1026.6 hPa | - | - | - | - |
| 1777698941 | 12.78° C | 45% | 1026.5 hPa | - | - | - | - |
| 1777698041 | 11.67° C | 46% | 1026.4 hPa | - | - | - | - |
| 1777697141 | 11.11° C | 47% | 1026.5 hPa | - | - | - | - |
| 1777696241 | 11.11° C | 46% | 1026.6 hPa | - | - | - | - |
| 1777695341 | 10.56° C | 47% | 1026.5 hPa | - | - | - | - |
| 1777694441 | 10.56° C | 48% | 1026.4 hPa | - | - | - | - |
| 1777693922 | 10° C | 48% | 1026.4 hPa | - | - | - | - |
| 1777693540 | 10° C | 48% | 1026.4 hPa | - | - | - | - |
| 1777692640 | 10.56° C | 48% | 1026.5 hPa | - | - | - | - |
| 1777691740 | 10.56° C | 48% | 1026.5 hPa | - | - | - | - |
| 1777690839 | 10.56° C | 48% | 1026.6 hPa | - | - | - | - |
| 1777689940 | 10.56° C | 48% | 1026.6 hPa | - | - | - | - |
| 1777689039 | 10.56° C | 48% | 1026.6 hPa | - | - | - | - |
| 1777688139 | 10.56° C | 48% | 1026.7 hPa | - | - | - | - |
* Rain since midnight (hover to see other rain measurements)
** Current wind speed in m/s (hover to see current wind gust speed)